Time;durP1;ratioP1;P1;durP2;ratioP2;P2;SDS_P1;SDS_P2;PMS_P1;PMS_P2;Temp;Humidity;BMP_temperature;BMP_pressure;BME280_temperature;BME280_humidity;BME280_pressure;Samples;Min_cycle;Max_cycle;Signal;HPM_P1;HPM_P2
2024/04/20 00:01:04;;;;;;;;;0.00;0.00;;;;;12.50;88.16;99552.91;146618;580;46010;-76
2024/04/20 00:04:05;;;;;;;;;0.00;0.00;;;;;12.49;88.10;99541.59;146614;563;46018;-74
2024/04/20 00:07:08;;;;;;;;;0.00;0.00;;;;;12.48;88.99;99534.66;146618;629;47018;-76
2024/04/20 00:10:12;;;;;;;;;0.00;0.00;;;;;12.51;88.63;99531.25;146615;657;46018;-82
2024/04/20 00:13:13;;;;;;;;;0.00;0.00;;;;;12.54;87.89;99529.59;146620;563;46018;-80
2024/04/20 00:16:13;;;;;;;;;0.00;0.00;;;;;12.56;88.09;99533.12;146616;644;46914;-79
2024/04/20 00:19:06;;;;;;;;;1.00;0.00;;;;;12.57;90.35;99534.00;146620;566;46010;-78
2024/04/20 00:22:11;;;;;;;;;0.00;0.00;;;;;12.57;88.74;99534.00;146629;565;45911;-78
2024/04/20 00:25:25;;;;;;;;;;;;;;;;;;;;;
2024/04/20 00:28:29;;;;;;;;;0.00;0.00;;;;;12.52;87.44;99535.59;146630;626;46909;-78
2024/04/20 00:31:30;;;;;;;;;0.00;0.00;;;;;12.50;88.52;99540.78;146634;648;45018;-78
2024/04/20 00:34:27;;;;;;;;;0.00;0.00;;;;;12.45;89.59;99525.06;146633;665;45018;-76
2024/04/20 00:37:47;;;;;;;;;0.00;0.00;;;;;11.99;90.81;99464.16;146632;665;45010;-81
2024/04/20 00:40:47;;;;;;;;;0.00;0.00;;;;;12.43;88.69;99513.75;146633;703;45018;-73
2024/04/20 00:43:49;;;;;;;;;0.00;0.00;;;;;12.47;88.49;99502.56;146637;667;45018;-74
2024/04/20 00:47:13;;;;;;;;;0.00;0.00;;;;;11.95;90.20;99415.53;146632;728;45914;-77
2024/04/20 00:50:20;;;;;;;;;0.00;0.00;;;;;12.41;91.16;99493.75;146631;584;45910;-76
2024/04/20 00:53:21;;;;;;;;;0.50;0.00;;;;;12.44;90.54;99499.91;146630;661;45881;-75
2024/04/20 00:56:33;;;;;;;;;0.25;0.00;;;;;12.51;86.46;99500.06;146627;657;45018;-75
2024/04/20 00:59:55;;;;;;;;;0.00;0.00;;;;;12.60;88.91;99495.94;146632;682;46012;-79
2024/04/20 01:03:14;;;;;;;;;0.00;0.00;;;;;12.64;86.50;99508.16;146633;569;45018;-77
2024/04/20 01:06:10;;;;;;;;;0.25;0.00;;;;;12.71;83.83;99494.47;146631;637;45878;-77
2024/04/20 01:09:23;;;;;;;;;0.00;0.00;;;;;12.34;80.75;99425.16;146634;692;45018;-78
2024/04/20 01:12:21;;;;;;;;;0.00;0.00;;;;;12.89;80.30;99512.19;146628;594;46018;-80
2024/04/20 01:15:25;;;;;;;;;0.00;0.00;;;;;12.98;78.46;99521.06;146635;629;45019;-73
2024/04/20 01:18:22;;;;;;;;;0.00;0.00;;;;;13.02;80.57;99509.88;146633;556;45909;-77
2024/04/20 01:21:37;;;;;;;;;0.00;0.00;;;;;12.40;76.89;99403.62;146625;677;47010;-78
2024/04/20 01:24:43;;;;;;;;;0.00;0.00;;;;;13.06;77.86;99507.38;146616;582;47013;-76
2024/04/20 01:27:38;;;;;;;;;0.00;0.00;;;;;13.05;77.61;99505.66;146612;690;46010;-74
2024/04/20 01:30:37;;;;;;;;;0.00;0.00;;;;;13.03;75.01;99494.31;146618;586;46018;-78
2024/04/20 01:33:36;;;;;;;;;0.00;0.00;;;;;13.03;75.02;99494.31;146618;606;46018;-73
2024/04/20 01:36:47;;;;;;;;;0.00;0.00;;;;;13.01;73.00;99489.91;146616;603;46012;-71
2024/04/20 01:39:42;;;;;;;;;0.00;0.00;;;;;13.02;71.78;99500.38;146618;579;46018;-72
2024/04/20 01:42:35;;;;;;;;;0.00;0.00;;;;;13.04;73.01;99524.69;146617;678;46913;-74
2024/04/20 01:45:28;;;;;;;;;0.00;0.00;;;;;13.04;72.05;99535.09;146618;636;46034;-74
2024/04/20 01:48:31;;;;;;;;;0.00;0.00;;;;;13.00;76.47;99501.19;146617;579;46014;-75
2024/04/20 01:51:34;;;;;;;;;0.00;0.00;;;;;12.98;74.29;99516.75;146617;625;46018;-74
2024/04/20 01:54:35;;;;;;;;;0.00;0.00;;;;;12.98;72.90;99514.13;146617;569;46012;-73
2024/04/20 01:57:45;;;;;;;;;0.00;0.00;;;;;12.53;70.71;99443.78;146613;600;46010;-71
2024/04/20 02:00:43;;;;;;;;;0.00;0.00;;;;;12.99;72.66;99512.41;146618;615;46018;-71
2024/04/20 02:03:55;;;;;;;;;0.00;0.00;;;;;13.00;70.77;99524.59;146619;581;46018;-71
2024/04/20 02:06:56;;;;;;;;;0.00;0.00;;;;;12.98;72.01;99536.69;146614;656;46019;-72
2024/04/20 02:09:54;;;;;;;;;0.00;0.00;;;;;12.99;72.60;99535.81;146620;652;46018;-72
2024/04/20 02:12:46;;;;;;;;;0.00;0.00;;;;;13.00;71.08;99556.69;146616;569;46018;-79
2024/04/20 02:15:44;;;;;;;;;0.00;0.00;;;;;13.02;72.50;99539.41;146621;604;46027;-80
2024/04/20 02:18:42;;;;;;;;;0.00;0.00;;;;;13.02;72.98;99567.13;146616;593;46018;-73
2024/04/20 02:21:44;;;;;;;;;0.00;0.00;;;;;13.02;72.17;99570.62;146621;628;46019;-72
2024/04/20 02:25:09;;;;;;;;;0.00;0.00;;;;;13.04;71.23;99570.66;146616;569;46018;-76
2024/04/20 02:28:16;;;;;;;;;0.00;0.00;;;;;13.05;72.47;99560.28;146612;626;46018;-75
2024/04/20 02:31:11;;;;;;;;;0.00;0.00;;;;;13.07;73.83;99560.31;146618;673;46018;-71
2024/04/20 02:34:14;;;;;;;;;0.00;0.00;;;;;13.07;70.84;99579.41;146618;569;46018;-77
2024/04/20 02:37:43;;;;;;;;;;;;;;;;;;;;;
2024/04/20 02:40:37;;;;;;;;;0.00;0.00;;;;;13.08;71.39;99573.38;146620;719;46012;-72
2024/04/20 02:43:34;;;;;;;;;0.50;0.00;;;;;13.11;68.34;99588.16;146615;653;46015;-77
2024/04/20 02:46:29;;;;;;;;;0.00;0.00;;;;;13.11;71.47;99590.75;146619;590;46018;-77
2024/04/20 02:49:25;;;;;;;;;1.00;0.00;;;;;13.12;70.33;99589.94;146617;632;47014;-77
2024/04/20 02:52:29;;;;;;;;;0.00;0.00;;;;;13.10;67.89;99595.09;146619;622;47012;-74
2024/04/20 02:55:23;;;;;;;;;0.25;0.00;;;;;13.09;71.29;99593.34;146617;601;46014;-76
2024/04/20 02:58:34;;;;;;;;;;;;;;;;;;;;;
2024/04/20 03:01:41;;;;;;;;;0.00;0.00;;;;;13.06;74.30;99610.63;146615;635;46019;-71
2024/04/20 03:04:37;;;;;;;;;0.00;0.00;;;;;13.06;72.84;99634.03;146620;569;46012;-73
2024/04/20 03:07:37;;;;;;;;;0.00;0.00;;;;;13.04;75.71;99610.56;146615;637;46019;-77
2024/04/20 03:10:47;;;;;;;;;0.75;0.00;;;;;13.07;73.52;99651.41;146622;688;46018;-74
2024/04/20 03:13:40;;;;;;;;;0.00;0.00;;;;;13.09;72.59;99652.31;146615;632;46018;-72
2024/04/20 03:16:41;;;;;;;;;0.00;0.00;;;;;13.07;71.58;99667.88;146622;578;46010;-70
2024/04/20 03:19:39;;;;;;;;;1.00;0.75;;;;;13.07;72.89;99661.81;146616;578;47012;-83
2024/04/20 03:22:50;;;;;;;;;0.00;0.00;;;;;13.06;69.52;99693.88;146621;620;46010;-83
2024/04/20 03:25:49;;;;;;;;;0.25;0.25;;;;;13.09;70.74;99693.97;146617;565;46018;-81
2024/04/20 03:28:46;;;;;;;;;1.00;0.00;;;;;13.11;70.28;99708.75;146614;597;46010;-82
2024/04/20 03:31:48;;;;;;;;;1.00;0.25;;;;;13.13;72.05;99732.22;146617;595;46018;-81
2024/04/20 03:34:55;;;;;;;;;0.00;0.00;;;;;12.48;72.31;99631.72;146622;565;46010;-81
2024/04/20 03:37:58;;;;;;;;;0.50;0.50;;;;;13.10;75.70;99752.97;146617;574;46012;-82
2024/04/20 03:40:50;;;;;;;;;1.00;1.00;;;;;13.03;77.68;99736.31;146622;635;46018;-80
2024/04/20 03:43:46;;;;;;;;;2.50;2.50;;;;;12.99;75.60;99777.81;146618;555;46019;-82
2024/04/20 03:46:46;;;;;;;;;1.00;1.00;;;;;12.97;73.62;99776.94;146620;571;47010;-82
2024/04/20 03:49:48;;;;;;;;;2.75;2.00;;;;;12.97;71.02;99792.53;146617;689;46914;-81
2024/04/20 03:52:40;;;;;;;;;3.00;1.75;;;;;12.98;73.49;99783.88;146619;578;46010;-81
2024/04/20 03:55:49;;;;;;;;;1.00;1.00;;;;;13.00;75.95;99792.63;146616;576;46018;-78
2024/04/20 03:58:49;;;;;;;;;1.75;1.75;;;;;13.00;75.27;99816.03;146612;622;47021;-79
2024/04/20 04:01:49;;;;;;;;;1.00;0.75;;;;;12.98;73.45;99810.78;146611;631;48012;-84
2024/04/20 04:04:50;;;;;;;;;0.25;0.25;;;;;13.01;72.04;99820.41;146622;614;46019;-83
2024/04/20 04:07:42;;;;;;;;;0.25;0.00;;;;;13.04;71.02;99825.69;146614;566;46019;-79
2024/04/20 04:10:56;;;;;;;;;1.75;0.75;;;;;13.09;71.35;99829.31;146619;621;46010;-75
2024/04/20 04:13:57;;;;;;;;;0.00;0.00;;;;;13.13;70.36;99851.97;146617;586;46019;-73
2024/04/20 04:16:52;;;;;;;;;2.00;2.00;;;;;13.16;72.54;99862.44;146620;566;46010;-69
2024/04/20 04:20:02;;;;;;;;;3.00;3.00;;;;;13.17;71.26;99872.88;146616;576;46012;-68
2024/04/20 04:23:16;;;;;;;;;;;;;;;;;;;;;
2024/04/20 04:26:32;;;;;;;;;1.25;1.25;;;;;13.27;70.05;99880.97;146617;611;46018;-75
2024/04/20 04:29:41;;;;;;;;;3.25;3.25;;;;;12.68;69.46;99793.50;146612;608;46018;-78
2024/04/20 04:32:52;;;;;;;;;1.25;1.25;;;;;13.30;68.59;99897.59;146616;592;46012;-76
2024/04/20 04:35:48;;;;;;;;;3.00;3.00;;;;;13.33;68.82;99907.19;146619;580;46019;-80
2024/04/20 04:39:08;;;;;;;;;2.25;1.50;;;;;13.34;70.11;99938.47;146619;633;45912;-79
2024/04/20 04:42:07;;;;;;;;;0.00;0.00;;;;;13.36;68.21;99952.44;146618;604;46021;-78
2024/04/20 04:45:15;;;;;;;;;1.25;1.25;;;;;12.63;67.70;99828.91;146617;741;47012;-79
2024/04/20 04:48:15;;;;;;;;;2.75;2.50;;;;;13.44;68.33;99951.75;146619;678;46018;-80
2024/04/20 04:51:11;;;;;;;;;2.25;2.25;;;;;13.49;68.25;99965.75;146616;570;46019;-79
2024/04/20 04:54:36;;;;;;;;;2.75;2.75;;;;;12.81;68.28;99857.16;146619;613;46018;-76
2024/04/20 04:57:43;;;;;;;;;1.75;1.75;;;;;13.54;68.51;99985.03;146614;604;47012;-72
2024/04/20 05:00:43;;;;;;;;;4.00;3.00;;;;;13.56;69.86;99992.03;146612;569;47010;-70
2024/04/20 05:03:41;;;;;;;;;2.25;2.00;;;;;13.56;69.57;100004.19;146614;577;47012;-75
2024/04/20 05:06:45;;;;;;;;;5.00;2.75;;;;;13.61;68.40;100015.59;146622;597;46010;-76
2024/04/20 05:09:47;;;;;;;;;2.00;2.00;;;;;13.64;67.66;100018.28;146614;675;47012;-74
2024/04/20 05:12:41;;;;;;;;;3.25;2.75;;;;;13.69;67.73;100037.53;146620;569;46018;-74
2024/04/20 05:15:45;;;;;;;;;3.25;2.25;;;;;13.73;67.55;100035.91;146606;572;48914;-75
2024/04/20 05:18:58;;;;;;;;;2.50;2.50;;;;;13.77;66.75;100050.75;146621;595;46018;-71
2024/04/20 05:21:57;;;;;;;;;2.00;2.00;;;;;13.80;65.94;100054.37;146617;583;46019;-73
2024/04/20 05:24:49;;;;;;;;;4.25;2.75;;;;;13.84;66.08;100052.72;146620;662;46018;-74
2024/04/20 05:27:48;;;;;;;;;2.00;2.00;;;;;13.85;64.08;100076.19;146617;659;46014;-73
2024/04/20 05:30:46;;;;;;;;;3.00;1.00;;;;;13.89;65.97;100069.34;146609;680;47010;-70
2024/04/20 05:33:48;;;;;;;;;2.00;2.00;;;;;13.92;65.06;100076.38;146618;582;46019;-81
2024/04/20 05:36:49;;;;;;;;;2.25;2.25;;;;;13.95;64.26;100079.06;146621;612;46030;-81
2024/04/20 05:39:53;;;;;;;;;2.25;2.25;;;;;14.02;64.32;100100.12;146617;609;47012;-81
2024/04/20 05:42:54;;;;;;;;;3.25;2.25;;;;;14.07;65.03;100088.09;146621;571;45019;-81
2024/04/20 05:45:55;;;;;;;;;3.00;2.00;;;;;14.12;63.05;100095.16;146607;612;47012;-69
2024/04/20 05:48:50;;;;;;;;;3.00;3.00;;;;;14.18;63.57;100100.56;146619;703;46034;-71
2024/04/20 05:51:52;;;;;;;;;3.00;3.00;;;;;14.25;64.41;100105.06;146616;669;46018;-71
2024/04/20 05:54:49;;;;;;;;;2.00;2.00;;;;;14.33;64.36;100114.00;146619;707;46018;-68
2024/04/20 05:57:59;;;;;;;;;;;;;;;;;;;;;
2024/04/20 06:01:18;;;;;;;;;2.00;2.00;;;;;14.52;62.10;100100.63;146613;706;46012;-75
2024/04/20 06:04:51;;;;;;;;;;;;;;;;;;;;;
2024/04/20 06:07:56;;;;;;;;;2.00;2.00;;;;;14.68;59.76;100080.13;146608;659;47912;-77
2024/04/20 06:11:09;;;;;;;;;2.75;2.75;;;;;14.68;59.27;100086.22;146607;659;48916;-80
2024/04/20 06:14:11;;;;;;;;;2.00;1.50;;;;;14.65;58.37;100070.50;146618;581;47010;-77
2024/04/20 06:17:16;;;;;;;;;2.50;2.00;;;;;14.67;58.97;100074.03;146614;569;47012;-77
2024/04/20 06:20:17;;;;;;;;;2.50;1.50;;;;;14.69;59.01;100085.34;146614;575;46019;-70
2024/04/20 06:23:31;;;;;;;;;2.00;2.00;;;;;14.04;57.35;99964.63;146614;595;46018;-77
2024/04/20 06:26:23;;;;;;;;;2.00;2.00;;;;;14.76;57.83;100087.25;146621;629;46011;-73
2024/04/20 06:29:25;;;;;;;;;2.00;1.25;;;;;14.81;56.25;100086.50;146617;665;46018;-76
2024/04/20 06:32:25;;;;;;;;;2.25;2.00;;;;;14.86;58.31;100092.69;146611;627;46018;-68
2024/04/20 06:35:31;;;;;;;;;2.00;2.00;;;;;14.96;58.15;100097.31;146615;663;47912;-68
2024/04/20 06:38:43;;;;;;;;;3.00;1.25;;;;;15.09;59.22;100116.75;146620;608;46018;-68
2024/04/20 06:41:41;;;;;;;;;1.50;1.50;;;;;15.16;60.36;100109.09;146616;564;46914;-69
2024/04/20 06:44:47;;;;;;;;;2.00;2.00;;;;;15.23;60.93;100105.78;146619;575;46018;-70
2024/04/20 06:47:51;;;;;;;;;;;;;;;;;;;;;
2024/04/20 06:51:07;;;;;;;;;;;;;;;;;;;;;
2024/04/20 06:54:15;;;;;;;;;3.00;3.00;;;;;15.26;60.52;100112.78;146615;582;46018;-70
2024/04/20 06:57:17;;;;;;;;;2.75;2.75;;;;;15.25;60.97;100121.47;146616;615;47010;-69
2024/04/20 07:00:33;;;;;;;;;4.50;4.50;;;;;15.22;63.09;100130.12;146617;606;46012;-67
2024/04/20 07:03:40;;;;;;;;;4.00;4.00;;;;;15.19;63.97;100143.09;146609;615;46014;-69
2024/04/20 07:06:53;;;;;;;;;5.25;5.25;;;;;15.18;64.52;100159.63;146615;577;46018;-67
2024/04/20 07:09:46;;;;;;;;;5.00;4.00;;;;;15.14;64.47;100156.91;146620;578;47010;-67
2024/04/20 07:12:42;;;;;;;;;5.00;5.00;;;;;15.23;66.00;100170.19;146616;602;46019;-68
2024/04/20 07:15:37;;;;;;;;;7.25;7.00;;;;;15.53;67.40;100169.13;146620;619;46018;-67
2024/04/20 07:18:32;;;;;;;;;5.75;5.75;;;;;15.92;64.56;100182.22;146618;613;46018;-69
2024/04/20 07:21:33;;;;;;;;;6.50;5.75;;;;;16.34;64.22;100183.91;146620;685;47010;-70
2024/04/20 07:24:53;;;;;;;;;5.50;5.50;;;;;16.72;62.88;100194.22;146616;563;46018;-69
2024/04/20 07:27:58;;;;;;;;;4.75;4.75;;;;;16.98;61.25;100192.97;146620;584;46018;-70
2024/04/20 07:30:54;;;;;;;;;6.75;6.00;;;;;17.21;61.24;100195.06;146619;570;46012;-69
2024/04/20 07:33:48;;;;;;;;;6.75;6.25;;;;;17.51;59.79;100192.06;146611;578;46019;-70
2024/04/20 07:36:47;;;;;;;;;5.00;5.00;;;;;17.74;57.97;100187.13;146617;570;46913;-69
2024/04/20 07:39:47;;;;;;;;;8.00;6.25;;;;;17.88;58.89;100179.44;146619;570;46019;-69
2024/04/20 07:42:44;;;;;;;;;5.50;5.00;;;;;18.08;58.92;100177.09;146617;696;46012;-70
2024/04/20 07:45:37;;;;;;;;;5.00;5.00;;;;;18.29;58.18;100177.34;146619;577;47010;-71
2024/04/20 07:48:46;;;;;;;;;4.75;4.75;;;;;18.46;56.54;100188.00;146613;723;47012;-70
2024/04/20 07:51:50;;;;;;;;;4.50;3.75;;;;;17.98;54.92;100082.53;146621;721;47010;-69
2024/04/20 07:54:50;;;;;;;;;5.25;5.25;;;;;18.74;51.37;100185.69;146610;693;47012;-69
2024/04/20 07:57:45;;;;;;;;;7.00;5.00;;;;;18.78;51.98;100187.47;146620;661;46010;-69
2024/04/20 08:00:37;;;;;;;;;3.67;3.67;;;;;18.81;54.42;100193.63;146618;630;46018;-71
2024/04/20 08:03:41;;;;;;;;;3.00;3.00;;;;;18.92;53.39;100197.25;146606;655;46019;-70
2024/04/20 08:06:37;;;;;;;;;4.75;4.75;;;;;19.11;52.57;100181.66;146615;669;46018;-70
2024/04/20 08:09:35;;;;;;;;;7.00;5.75;;;;;19.29;53.73;100183.53;146616;633;46018;-70
2024/04/20 08:12:55;;;;;;;;;6.00;6.00;;;;;18.60;53.47;100025.38;146616;638;46015;-70
2024/04/20 08:16:02;;;;;;;;;6.67;5.67;;;;;19.66;50.08;100176.81;146621;663;46018;-70
2024/04/20 08:19:16;;;;;;;;;4.00;4.00;;;;;19.86;51.13;100173.38;146619;580;46018;-70
2024/04/20 08:22:21;;;;;;;;;3.00;2.75;;;;;20.02;49.46;100180.47;146635;573;45018;-70
2024/04/20 08:25:14;;;;;;;;;3.00;3.00;;;;;19.90;49.19;100190.94;146632;572;46008;-70
2024/04/20 08:28:20;;;;;;;;;5.00;4.00;;;;;19.88;49.73;100179.53;146633;569;46010;-70
2024/04/20 08:31:14;;;;;;;;;3.33;3.33;;;;;19.83;46.12;100183.00;146633;646;45909;-70
2024/04/20 08:34:07;;;;;;;;;3.67;2.00;;;;;19.66;48.51;100183.78;146631;570;45010;-70
2024/04/20 08:37:05;;;;;;;;;4.00;4.00;;;;;19.45;48.58;100182.78;146631;597;45909;-70
2024/04/20 08:40:15;;;;;;;;;5.00;5.00;;;;;19.41;50.76;100182.72;146636;564;45011;-69
2024/04/20 08:43:20;;;;;;;;;5.00;5.00;;;;;19.50;50.65;100180.16;146631;637;46012;-69
2024/04/20 08:46:51;;;;;;;;;6.00;6.00;;;;;19.55;50.52;100181.94;146635;589;45018;-70
2024/04/20 08:50:07;;;;;;;;;4.00;4.00;;;;;19.54;49.30;100188.09;146631;579;45913;-70
2024/04/20 08:53:08;;;;;;;;;3.50;3.50;;;;;19.45;48.33;100189.78;146630;595;46010;-71
2024/04/20 08:56:11;;;;;;;;;3.33;3.33;;;;;19.37;48.43;100192.34;146631;610;46014;-70
2024/04/20 08:59:17;;;;;;;;;;;;;;;;;;;;;
2024/04/20 09:02:39;;;;;;;;;6.67;5.00;;;;;18.82;49.91;100065.84;146633;617;45018;-68
2024/04/20 09:05:48;;;;;;;;;;;;;;;;;;;;;
2024/04/20 09:09:01;;;;;;;;;;;;;;;;;;;;;
2024/04/20 09:12:02;;;;;;;;;3.00;3.00;;;;;19.14;49.36;100198.31;146634;671;45018;-70
2024/04/20 09:15:09;;;;;;;;;5.50;4.50;;;;;19.00;50.09;100210.44;146631;595;45018;-69
2024/04/20 09:18:05;;;;;;;;;3.50;3.50;;;;;18.91;48.96;100206.00;146633;570;46011;-70
2024/04/20 09:21:03;;;;;;;;;5.00;4.00;;;;;18.86;49.33;100218.22;146618;611;46018;-70
2024/04/20 09:23:55;;;;;;;;;4.25;4.00;;;;;18.77;50.71;100214.63;146620;628;47010;-70
2024/04/20 09:27:03;;;;;;;;;3.25;3.25;;;;;18.87;48.73;100209.47;146615;585;46018;-70
2024/04/20 10:32:06;;;;;;;;;4.25;4.00;;;;;18.08;49.60;100227.81;146639;564;46022;-70
2024/04/20 10:35:24;;;;;;;;;5.75;4.00;;;;;18.49;50.31;100213.44;146619;577;46017;-70
2024/04/20 10:38:34;;;;;;;;;5.50;4.75;;;;;19.07;49.06;100221.91;146623;629;46020;-70
2024/04/20 10:41:37;;;;;;;;;5.00;4.25;;;;;19.52;46.02;100220.50;146618;575;46917;-70
2024/04/20 10:44:45;;;;;;;;;3.00;3.00;;;;;19.92;46.26;100216.37;146623;597;47018;-70
2024/04/20 10:47:50;;;;;;;;;2.67;2.67;;;;;20.00;44.92;100217.31;146618;571;46016;-70
2024/04/20 10:50:43;;;;;;;;;2.75;1.50;;;;;19.94;46.39;100219.03;146623;655;47008;-69
2024/04/20 10:53:45;;;;;;;;;3.75;3.75;;;;;19.86;46.93;100216.34;146617;596;46016;-69
2024/04/20 10:56:42;;;;;;;;;3.50;3.50;;;;;19.70;46.22;100211.88;146621;591;46021;-70
2024/04/20 10:59:37;;;;;;;;;2.75;2.75;;;;;19.57;45.95;100218.78;146618;703;46012;-69
2024/04/20 11:02:37;;;;;;;;;3.00;3.00;;;;;19.61;47.38;100215.31;146622;665;46008;-70
2024/04/20 11:06:20;;;;;;;;;4.00;3.00;;;;;19.77;48.80;100211.91;146619;625;46016;-70
2024/04/20 11:09:24;;;;;;;;;5.25;5.00;;;;;20.04;46.19;100211.19;146624;593;46020;-69
2024/04/20 11:12:29;;;;;;;;;3.75;3.00;;;;;20.17;47.68;100214.75;146617;676;46016;-71
2024/04/20 11:15:38;;;;;;;;;4.00;3.00;;;;;20.03;46.12;100221.69;146622;606;46020;-70
2024/04/20 11:18:37;;;;;;;;;4.75;3.00;;;;;19.84;47.63;100224.25;146617;597;47011;-70
2024/04/20 11:21:30;;;;;;;;;4.00;4.00;;;;;19.70;46.51;100227.66;146625;595;46020;-70
2024/04/20 11:24:45;;;;;;;;;3.00;3.00;;;;;19.57;48.70;100239.81;146616;625;47013;-70
2024/04/20 11:27:47;;;;;;;;;3.75;3.25;;;;;19.39;47.81;100241.44;146624;668;46020;-70
2024/04/20 11:31:01;;;;;;;;;3.50;3.50;;;;;19.28;48.57;100239.59;146614;615;47010;-69
2024/04/20 11:34:02;;;;;;;;;4.75;4.00;;;;;19.33;49.48;100246.66;146616;588;47008;-70
2024/04/20 11:37:08;;;;;;;;;3.75;2.50;;;;;19.50;48.69;100236.28;146605;630;47010;-70
2024/04/20 11:40:24;;;;;;;;;4.00;3.75;;;;;19.59;48.01;100238.06;146612;575;47021;-70
2024/04/20 11:43:35;;;;;;;;;4.00;3.25;;;;;19.72;47.63;100239.97;146609;606;48012;-70
2024/04/20 11:46:51;;;;;;;;;4.25;4.25;;;;;19.35;46.58;100152.91;146616;633;46020;-71
2024/04/20 11:49:54;;;;;;;;;3.25;3.25;;;;;20.04;48.72;100234.00;146606;608;46033;-70
2024/04/20 11:56:38;;;;;;;;;3.50;3.50;;;;;20.12;44.72;100231.38;146612;606;46023;-69
2024/04/20 11:59:43;;;;;;;;;5.00;4.00;;;;;19.93;46.76;100217.25;146616;609;46020;-71
2024/04/20 12:02:43;;;;;;;;;4.00;4.00;;;;;19.89;46.01;100224.25;146613;567;46016;-71
2024/04/20 12:05:41;;;;;;;;;5.25;4.25;;;;;19.76;44.87;100219.81;146615;563;46020;-70
2024/04/20 12:08:42;;;;;;;;;3.00;3.00;;;;;19.57;46.41;100231.94;146613;659;46016;-69
2024/04/20 12:11:34;;;;;;;;;3.00;3.00;;;;;19.44;46.16;100232.69;146614;597;47008;-71
2024/04/20 12:14:26;;;;;;;;;4.00;4.00;;;;;19.20;45.46;100228.16;146610;576;47010;-71
2024/04/20 12:17:24;;;;;;;;;3.00;3.00;;;;;18.92;45.45;100227.91;146611;630;47020;-70
2024/04/20 12:20:32;;;;;;;;;2.00;2.00;;;;;18.75;46.80;100230.34;146610;627;47016;-71
2024/04/20 12:23:44;;;;;;;;;5.00;2.75;;;;;17.84;46.17;100123.47;146616;597;46020;-71
2024/04/20 12:26:47;;;;;;;;;8.25;8.25;;;;;18.41;47.83;100243.09;146610;578;46016;-72
2024/04/20 12:30:15;;;;;;;;;2.75;2.75;;;;;17.96;47.91;100157.72;146613;589;47020;-71
2024/04/20 12:33:20;;;;;;;;;7.00;4.67;;;;;18.19;49.05;100170.22;146640;601;45017;-72
2024/04/20 12:36:26;;;;;;;;;3.75;3.00;;;;;18.61;48.14;100232.81;146635;681;46010;-72
2024/04/20 12:39:30;;;;;;;;;3.25;3.25;;;;;18.69;47.41;100228.53;146637;658;45865;-75
2024/04/20 12:42:28;;;;;;;;;5.75;3.75;;;;;18.80;46.08;100235.66;146637;726;46008;-72
2024/04/20 12:45:40;;;;;;;;;3.67;3.67;;;;;18.89;46.39;100233.13;146639;575;46010;-74
2024/04/20 12:48:43;;;;;;;;;4.00;4.00;;;;;18.86;45.48;100219.97;146641;567;45020;-70
2024/04/20 12:51:41;;;;;;;;;3.00;3.00;;;;;18.81;47.16;100212.03;146634;573;47012;-71
2024/04/20 12:54:55;;;;;;;;;2.75;2.00;;;;;18.83;46.61;100218.19;146639;593;45020;-72
2024/04/20 12:57:56;;;;;;;;;4.67;3.00;;;;;18.89;47.31;100207.75;146636;698;46012;-73
2024/04/20 13:01:11;;;;;;;;;;;;;;;;;;;;;
2024/04/20 13:04:07;;;;;;;;;3.50;3.50;;;;;19.01;46.97;100196.47;146634;616;46912;-75
2024/04/20 13:07:15;;;;;;;;;3.25;2.25;;;;;19.10;47.03;100193.91;146637;713;46008;-71
2024/04/20 13:10:20;;;;;;;;;4.75;4.75;;;;;19.11;45.92;100200.03;146640;667;45912;-74
2024/04/20 13:13:24;;;;;;;;;2.00;2.00;;;;;19.07;46.27;100185.13;146641;569;46008;-71
2024/04/20 13:16:22;;;;;;;;;3.25;2.75;;;;;19.06;47.61;100188.59;146637;626;45017;-72
2024/04/20 13:19:30;;;;;;;;;3.75;3.75;;;;;19.06;47.00;100188.59;146641;639;45008;-71
2024/04/20 13:22:38;;;;;;;;;4.25;4.25;;;;;19.01;46.19;100179.81;146639;682;46010;-72
2024/04/20 13:25:38;;;;;;;;;3.00;3.00;;;;;19.02;45.71;100181.56;146642;646;46009;-72
2024/04/20 13:28:53;;;;;;;;;3.33;3.00;;;;;18.66;46.64;100112.06;146637;579;45010;-72
2024/04/20 13:31:50;;;;;;;;;2.00;2.00;;;;;18.91;45.65;100178.88;146622;701;46020;-71
2024/04/20 13:34:51;;;;;;;;;3.00;3.00;;;;;18.96;45.37;100178.91;146613;615;46016;-73
2024/04/20 13:37:48;;;;;;;;;2.67;2.00;;;;;18.92;45.28;100178.88;146615;576;47008;-74
2024/04/20 13:41:19;;;;;;;;;;;;;;;;;;;;;
2024/04/20 13:44:22;;;;;;;;;5.75;4.00;;;;;18.86;46.05;100167.44;146614;572;47008;-74
2024/04/20 13:47:29;;;;;;;;;2.75;2.75;;;;;18.84;46.19;100167.41;146611;600;46031;-74
2024/04/20 13:50:25;;;;;;;;;2.67;2.67;;;;;18.84;46.07;100161.28;146612;669;46020;-72
2024/04/20 13:53:21;;;;;;;;;2.33;2.33;;;;;18.89;46.35;100164.81;146614;581;46911;-72
2024/04/20 13:56:38;;;;;;;;;2.00;2.00;;;;;18.90;46.49;100171.84;146616;614;46020;-74
2024/04/20 13:59:34;;;;;;;;;3.00;2.33;;;;;18.86;46.74;100180.56;146612;630;46010;-72
2024/04/20 14:02:40;;;;;;;;;3.00;3.00;;;;;18.84;48.21;100174.41;146617;648;47025;-73
2024/04/20 14:05:53;;;;;;;;;2.33;2.33;;;;;18.43;47.98;100106.59;146612;603;47012;-71
2024/04/20 14:08:57;;;;;;;;;3.25;3.00;;;;;18.79;48.08;100165.63;146613;571;47008;-73
2024/04/20 14:11:56;;;;;;;;;4.50;3.25;;;;;18.78;47.55;100172.59;146610;600;47016;-72
2024/04/20 14:14:49;;;;;;;;;2.67;2.67;;;;;18.78;46.89;100163.84;146617;566;47008;-71
2024/04/20 14:17:57;;;;;;;;;3.00;3.00;;;;;18.75;48.37;100175.19;146609;572;47917;-74
2024/04/20 14:20:54;;;;;;;;;2.00;2.00;;;;;18.64;47.52;100172.44;146617;628;46020;-71
2024/04/20 14:23:53;;;;;;;;;3.00;2.50;;;;;18.59;48.72;100181.12;146611;565;46016;-71
2024/04/20 14:26:53;;;;;;;;;4.00;4.00;;;;;18.51;49.04;100181.09;146616;642;46020;-74
2024/04/20 14:30:07;;;;;;;;;3.00;3.00;;;;;18.41;49.57;100187.97;146615;579;46016;-72
2024/04/20 14:33:54;;;;;;;;;3.00;3.00;;;;;18.35;50.71;100187.00;146641;570;45021;-74
2024/04/20 14:37:12;;;;;;;;;1.00;1.00;;;;;18.27;49.32;100189.56;146636;582;46016;-72
2024/04/20 14:40:11;;;;;;;;;2.67;2.67;;;;;18.20;50.73;100188.63;146641;569;46008;-72
2024/04/20 14:43:27;;;;;;;;;3.00;3.00;;;;;17.80;49.97;100126.03;146638;633;45016;-72
2024/04/20 14:46:42;;;;;;;;;3.00;2.00;;;;;17.72;49.92;100125.91;146641;657;45008;-71
2024/04/20 14:49:54;;;;;;;;;1.00;1.00;;;;;18.06;50.01;100194.56;146641;565;45908;-74
2024/04/20 14:52:49;;;;;;;;;1.00;1.00;;;;;17.98;51.05;100205.84;146640;621;45021;-73
2024/04/20 14:56:29;;;;;;;;;;;;;;;;;;;;;
2024/04/20 14:59:39;;;;;;;;;2.00;1.33;;;;;17.46;52.38;100129.06;146644;625;45020;-73
2024/04/20 15:02:40;;;;;;;;;2.00;2.00;;;;;17.77;51.26;100200.31;146638;647;45016;-72
2024/04/20 15:05:49;;;;;;;;;2.00;2.00;;;;;17.74;52.41;100198.47;146643;656;45020;-73
2024/04/20 15:08:57;;;;;;;;;2.25;2.00;;;;;17.72;52.76;100209.81;146636;569;46012;-72
2024/04/20 15:12:23;;;;;;;;;1.25;1.00;;;;;17.74;51.59;100203.72;146640;638;45020;-71
2024/04/20 15:15:55;;;;;;;;;;;;;;;;;;;;;
2024/04/20 15:18:59;;;;;;;;;4.25;1.75;;;;;17.66;51.89;100204.47;146639;689;48008;-72
2024/04/20 15:21:57;;;;;;;;;2.33;1.67;;;;;17.56;51.88;100198.22;146638;679;45910;-74
2024/04/20 15:24:54;;;;;;;;;2.75;2.00;;;;;17.60;52.62;100199.13;146639;595;45021;-72
2024/04/20 15:27:46;;;;;;;;;2.33;2.00;;;;;17.62;52.20;100198.31;146639;597;45030;-73
2024/04/20 15:30:46;;;;;;;;;3.00;2.50;;;;;17.58;51.31;100203.50;146633;690;45021;-72
2024/04/20 15:33:45;;;;;;;;;3.00;2.00;;;;;17.48;51.54;100219.09;146611;569;47010;-72
2024/04/20 15:36:58;;;;;;;;;2.00;1.00;;;;;17.45;52.45;100199.81;146616;635;46020;-73
2024/04/20 15:39:57;;;;;;;;;2.00;1.00;;;;;17.41;53.55;100196.25;146612;570;46010;-72
2024/04/20 15:42:51;;;;;;;;;2.67;2.67;;;;;17.40;52.59;100201.47;146618;665;47020;-73
2024/04/20 15:45:57;;;;;;;;;5.67;3.67;;;;;17.42;52.84;100208.50;146613;637;46017;-75
2024/04/20 15:49:03;;;;;;;;;2.50;2.00;;;;;17.40;51.64;100202.34;146614;582;47008;-74